KECS/ECS METAR and TAF weather

Enter ICAO airport designator
Station Type Date Time Source
KECS METAR 2019/11/14 03:55 UTC NOAA

KECS 140355Z AUTO 00000KT 10SM OVC050 00/00 A3017 RMK AO2


Station Type Date Time Source
KECS Decoded METAR 2019/11/14 03:55 UTC NOAA

Station name not available
Nov 13, 2019 - 10:55 PM EST / 2019.11.14 0355 UTC
Wind: Calm:0
Visibility: 10 mile(s):0
Sky conditions: overcast
Temperature: 32 F (0 C)
Dew Point: 32 F (0 C)
Relative Humidity: 100%
Pressure (altimeter): 30.17 in. Hg (1021 hPa)
ob: KECS 140355Z AUTO 00000KT 10SM OVC050 00/00 A3017 RMK AO2
cycle: 4

Station Type Date Time Source
KECS TAF UTC NOAA

Error!

Example: see airport list